Greenspond, Canada
Current Conditions -  °F | °C
As of 4:00 AM on Friday 31 Oct 2014 (Local Time) from CYQX Reporting Station
Scattered Clouds Scattered Clouds  
Wind Chill:   Ceiling: Unl
Heat Index:   Visibility: 20mi
Dew Point:   Wind: 13mph
Humidity: 81%   Direction: 260°W
Pressure: 29.72"   Gusts: 21mph
Location:  49.05°N, 53.58°W
Report Text: CYQX 310600Z 26011G18KT 20SM FEW019 SCT250 05/02 A2972 RMK SC1CI2 SLP067
Loading
Personal Weather Stations






























Interactive Weather Map
Tropical Storm Tracking
New forecast layout! Learn more

10-Day Weather Forecast

Advertisements
Track Severe Weather on mobile